Time;durP1;ratioP1;P1;durP2;ratioP2;P2;SDS_P1;SDS_P2;PMS_P1;PMS_P2;Temp;Humidity;BMP_temperature;BMP_pressure;BME280_temperature;BME280_humidity;BME280_pressure;Samples;Min_cycle;Max_cycle;Signal;HPM_P1;HPM_P2
2023/02/10 00:02:25;;;;;;;55.87;33.97;;;3.30;1.00;;;;;;5032415;28;20456;-61
2023/02/10 00:04:53;;;;;;;49.87;33.27;;;3.30;1.00;;;;;;5031725;28;20456;-61
2023/02/10 00:07:20;;;;;;;48.80;34.00;;;3.30;1.00;;;;;;5032100;28;20456;-62
2023/02/10 00:09:52;;;;;;;54.30;33.63;;;3.30;1.00;;;;;;5032054;28;20772;-61
2023/02/10 00:12:21;;;;;;;55.47;34.83;;;3.30;1.00;;;;;;5029539;28;20539;-62
2023/02/10 00:14:48;;;;;;;54.50;33.87;;;3.30;1.00;;;;;;5032397;28;20782;-62
2023/02/10 00:17:17;;;;;;;50.60;35.40;;;3.40;1.00;;;;;;5032902;28;20463;-62
2023/02/10 00:19:44;;;;;;;51.43;34.47;;;3.30;1.00;;;;;;5031445;28;20459;-62
2023/02/10 00:22:11;;;;;;;51.97;33.60;;;3.30;1.00;;;;;;5032060;28;20520;-62
2023/02/10 00:24:39;;;;;;;47.53;34.00;;;3.30;1.00;;;;;;5032249;28;20546;-62
2023/02/10 00:27:10;;;;;;;53.13;34.03;;;3.20;1.00;;;;;;5032039;28;20556;-62
2023/02/10 00:29:37;;;;;;;57.87;34.60;;;3.20;1.00;;;;;;5031915;28;20459;-62
2023/02/10 00:32:05;;;;;;;51.43;34.60;;;3.30;1.00;;;;;;5031503;28;20491;-62
2023/02/10 00:34:35;;;;;;;47.27;32.27;;;3.30;1.00;;;;;;5032178;28;20916;-62
2023/02/10 00:37:02;;;;;;;51.63;31.80;;;3.30;1.00;;;;;;5029230;28;20881;-62
2023/02/10 00:39:29;;;;;;;58.73;33.37;;;3.30;1.00;;;;;;5031037;28;20558;-62
2023/02/10 00:41:57;;;;;;;49.57;33.30;;;3.30;1.00;;;;;;5031563;28;20554;-62
2023/02/10 00:44:25;;;;;;;48.47;31.50;;;3.30;1.00;;;;;;5028781;28;20460;-62
2023/02/10 00:46:55;;;;;;;55.47;36.70;;;3.30;1.00;;;;;;5031369;28;20466;-62
2023/02/10 00:49:22;;;;;;;57.43;31.60;;;3.30;1.00;;;;;;5028446;28;20558;-62
2023/02/10 00:51:50;;;;;;;49.17;32.57;;;3.30;1.00;;;;;;5031380;27;20490;-62
2023/02/10 00:54:17;;;;;;;47.47;33.77;;;3.30;1.00;;;;;;4876668;28;4463997;-62
2023/02/10 00:56:45;;;;;;;47.63;33.37;;;3.30;1.00;;;;;;5032452;28;20240;-62
2023/02/10 00:59:15;;;;;;;54.43;35.23;;;3.30;1.00;;;;;;5032039;28;20462;-61
2023/02/10 01:01:44;;;;;;;48.63;33.20;;;3.30;1.00;;;;;;5035896;28;20459;-62
2023/02/10 01:04:11;;;;;;;53.63;32.97;;;3.30;1.00;;;;;;5035577;28;20542;-61
2023/02/10 01:06:38;;;;;;;47.27;32.07;;;3.30;1.00;;;;;;5035946;28;20550;-62
2023/02/10 01:09:06;;;;;;;48.30;32.00;;;3.30;1.00;;;;;;5035978;28;20481;-62
2023/02/10 01:11:33;;;;;;;49.63;34.20;;;3.30;1.00;;;;;;5036022;28;20489;-62
2023/02/10 01:14:01;;;;;;;54.13;33.27;;;3.30;1.00;;;;;;5035545;28;20436;-62
2023/02/10 01:16:28;;;;;;;52.30;34.47;;;3.20;1.00;;;;;;5035582;28;20510;-63
2023/02/10 01:18:56;;;;;;;49.07;33.50;;;3.20;1.00;;;;;;5035973;28;20477;-62
2023/02/10 01:21:24;;;;;;;55.50;33.77;;;3.20;1.00;;;;;;5035438;28;20899;-62
2023/02/10 01:23:51;;;;;;;53.13;34.77;;;3.20;1.00;;;;;;5035561;28;20731;-62
2023/02/10 01:26:19;;;;;;;54.50;32.83;;;3.20;1.00;;;;;;5035476;28;20469;-62
2023/02/10 01:28:46;;;;;;;52.13;34.00;;;3.20;1.00;;;;;;5035763;28;20954;-62
2023/02/10 01:31:15;;;;;;;50.60;33.20;;;3.20;1.00;;;;;;5037327;28;20462;-62
2023/02/10 01:33:42;;;;;;;56.83;35.40;;;3.20;1.00;;;;;;5036281;28;20466;-62
2023/02/10 01:36:35;;;;;;;48.33;33.27;;;3.20;1.00;;;;;;5036306;28;20461;-62
2023/02/10 01:39:02;;;;;;;50.53;33.97;;;3.20;1.00;;;;;;5033326;28;20753;-62
2023/02/10 01:41:30;;;;;;;58.90;34.00;;;3.20;1.00;;;;;;5034614;28;20453;-62
2023/02/10 01:44:01;;;;;;;54.27;35.13;;;3.20;1.00;;;;;;5035052;28;20813;-62
2023/02/10 01:46:29;;;;;;;50.80;34.13;;;3.30;1.00;;;;;;5035203;28;20451;-62
2023/02/10 01:48:58;;;;;;;53.90;35.13;;;3.20;1.00;;;;;;5035245;28;20888;-62
2023/02/10 01:51:38;;;;;;;61.73;35.53;;;3.20;1.00;;;;;;5035485;28;20493;-61
2023/02/10 01:54:09;;;;;;;54.43;35.70;;;3.20;1.00;;;;;;5033768;28;20785;-61
2023/02/10 01:56:37;;;;;;;55.23;34.17;;;3.20;1.00;;;;;;5032937;28;20469;-62
2023/02/10 01:59:05;;;;;;;51.90;34.23;;;3.20;1.00;;;;;;5035189;28;20486;-62
2023/02/10 02:01:35;;;;;;;54.67;35.00;;;3.20;1.00;;;;;;5035023;27;20475;-61
2023/02/10 02:04:07;;;;;;;53.80;35.10;;;3.20;1.00;;;;;;5034788;28;20462;-62
2023/02/10 02:06:37;;;;;;;57.77;36.07;;;3.20;1.00;;;;;;5032880;28;20437;-61
2023/02/10 02:09:05;;;;;;;51.47;33.87;;;3.20;1.00;;;;;;5034460;27;20936;-62
2023/02/10 02:11:45;;;;;;;53.23;35.13;;;3.20;1.00;;;;;;5032338;28;20456;-60
2023/02/10 02:14:31;;;;;;;52.27;34.47;;;3.20;1.00;;;;;;5031567;28;20968;-62
2023/02/10 02:17:14;;;;;;;53.17;35.73;;;3.10;1.00;;;;;;5032849;28;20516;-62
2023/02/10 02:20:43;;;;;;;54.90;34.30;;;3.10;1.00;;;;;;5032790;28;20459;-62
2023/02/10 02:23:28;;;;;;;54.77;33.73;;;3.20;1.00;;;;;;5033746;28;20455;-62
2023/02/10 02:26:31;;;;;;;54.90;35.10;;;3.10;1.00;;;;;;5032699;28;20553;-62
2023/02/10 02:29:25;;;;;;;52.03;34.20;;;3.10;1.00;;;;;;5032799;28;20550;-62
2023/02/10 02:32:00;;;;;;;56.87;35.53;;;3.10;1.00;;;;;;5027800;28;20497;-62
2023/02/10 02:34:38;;;;;;;52.97;33.43;;;3.10;1.00;;;;;;5035216;28;20463;-62
2023/02/10 02:37:11;;;;;;;51.13;34.40;;;3.10;1.00;;;;;;5036198;28;20852;-62
2023/02/10 02:39:38;;;;;;;50.70;32.57;;;3.10;1.00;;;;;;5035459;28;20864;-61
2023/02/10 02:42:20;;;;;;;60.43;34.70;;;3.10;1.00;;;;;;5036167;28;20549;-60
2023/02/10 02:44:51;;;;;;;50.70;35.50;;;3.20;1.00;;;;;;5035892;28;20467;-61
2023/02/10 02:47:31;;;;;;;49.70;34.90;;;3.20;1.00;;;;;;5035304;28;20900;-62
2023/02/10 02:50:13;;;;;;;53.27;35.60;;;3.10;1.00;;;;;;5035350;28;20532;-61
2023/02/10 02:52:50;;;;;;;52.80;34.60;;;3.20;1.00;;;;;;5035017;28;20594;-61
2023/02/10 02:55:26;;;;;;;60.93;35.90;;;3.10;1.00;;;;;;5035850;28;20768;-61
2023/02/10 02:57:57;;;;;;;58.33;36.23;;;3.10;1.00;;;;;;5035831;28;20463;-62
2023/02/10 03:00:28;;;;;;;56.10;35.90;;;3.10;1.00;;;;;;5035658;28;20827;-62
2023/02/10 03:02:59;;;;;;;55.40;36.30;;;3.10;1.00;;;;;;5035513;28;20561;-62
2023/02/10 03:05:31;;;;;;;54.23;35.30;;;3.10;1.00;;;;;;5035646;28;20542;-61
2023/02/10 03:07:58;;;;;;;48.73;35.20;;;3.10;1.00;;;;;;5035816;28;20942;-62
2023/02/10 03:10:26;;;;;;;51.67;35.50;;;3.10;1.00;;;;;;5034956;28;20489;-61
2023/02/10 03:12:53;;;;;;;57.03;36.70;;;3.00;1.00;;;;;;5034224;28;20582;-60
2023/02/10 03:15:21;;;;;;;56.90;36.33;;;3.00;1.00;;;;;;5034993;28;20946;-61
2023/02/10 03:17:48;;;;;;;52.33;36.60;;;3.00;1.00;;;;;;5035499;28;20478;-61
2023/02/10 03:20:17;;;;;;;59.10;37.37;;;3.00;1.00;;;;;;5035018;28;20462;-61
2023/02/10 03:22:44;;;;;;;53.17;38.10;;;2.90;1.00;;;;;;5034564;28;20546;-60
2023/02/10 03:25:11;;;;;;;52.20;35.37;;;2.90;1.00;;;;;;5034942;28;20469;-62
2023/02/10 03:27:39;;;;;;;56.77;35.93;;;2.80;1.00;;;;;;5035628;28;20566;-62
2023/02/10 03:30:06;;;;;;;56.23;36.93;;;2.80;1.00;;;;;;5035427;28;20467;-62
2023/02/10 03:32:34;;;;;;;54.03;35.70;;;2.80;1.00;;;;;;5035001;28;20502;-61
2023/02/10 03:35:01;;;;;;;54.43;36.67;;;2.80;1.00;;;;;;5034475;28;20522;-62
2023/02/10 03:37:29;;;;;;;58.33;38.27;;;2.70;1.00;;;;;;5034626;28;20463;-62
2023/02/10 03:39:57;;;;;;;57.20;36.70;;;2.70;1.00;;;;;;5034155;28;20463;-62
2023/02/10 03:42:24;;;;;;;56.73;37.03;;;2.60;11.00;;;;;;5034958;28;20464;-62
2023/02/10 03:44:51;;;;;;;54.57;38.00;;;2.60;17.00;;;;;;5029456;28;20813;-59
2023/02/10 03:47:18;;;;;;;56.80;37.30;;;2.50;21.50;;;;;;5032645;28;20577;-62
2023/02/10 03:49:45;;;;;;;60.70;36.57;;;2.50;56.80;;;;;;5014049;28;20767;-62
2023/02/10 03:52:13;;;;;;;59.57;34.90;;;2.40;91.10;;;;;;5016528;28;20575;-62
2023/02/10 03:54:41;;;;;;;63.23;37.57;;;2.30;99.90;;;;;;5032626;28;20553;-62
2023/02/10 03:57:09;;;;;;;57.80;36.40;;;2.20;99.90;;;;;;5032421;28;20463;-62
2023/02/10 03:59:36;;;;;;;55.87;35.40;;;2.20;99.90;;;;;;5033464;28;20538;-62
2023/02/10 04:02:04;;;;;;;51.67;36.90;;;2.10;99.90;;;;;;5033800;28;20835;-62
2023/02/10 04:04:31;;;;;;;57.13;35.00;;;2.00;99.90;;;;;;5033814;28;20550;-60
2023/02/10 04:06:58;;;;;;;50.97;33.47;;;2.00;99.90;;;;;;5034327;28;20566;-61
2023/02/10 04:09:25;;;;;;;49.40;33.17;;;2.00;99.90;;;;;;5034680;28;20591;-61
2023/02/10 04:11:54;;;;;;;56.13;36.23;;;2.00;1.00;;;;;;5034537;28;20506;-60
2023/02/10 04:14:21;;;;;;;56.47;36.40;;;1.90;1.00;;;;;;5034522;28;20850;-61
2023/02/10 04:16:48;;;;;;;55.57;37.50;;;1.90;1.00;;;;;;5034391;28;20520;-61
2023/02/10 04:19:16;;;;;;;54.20;35.50;;;1.90;1.00;;;;;;5034219;28;20536;-62
2023/02/10 04:21:43;;;;;;;58.13;38.27;;;1.80;1.00;;;;;;5033791;28;20499;-61
2023/02/10 04:24:10;;;;;;;61.03;37.80;;;1.80;1.00;;;;;;5034489;28;20455;-62
2023/02/10 04:26:37;;;;;;;60.30;37.23;;;1.90;1.00;;;;;;5034663;28;20751;-62
2023/02/10 04:29:06;;;;;;;66.70;36.93;;;1.80;1.00;;;;;;5034298;28;20773;-62
2023/02/10 04:31:33;;;;;;;58.17;37.20;;;1.70;1.00;;;;;;5034341;28;20476;-62
2023/02/10 04:34:00;;;;;;;64.23;38.27;;;1.70;1.00;;;;;;5035707;28;20594;-62
2023/02/10 04:36:28;;;;;;;62.27;39.10;;;1.70;1.00;;;;;;5038147;28;20546;-62
2023/02/10 04:38:55;;;;;;;58.50;39.50;;;1.70;99.90;;;;;;5036681;28;20565;-62
2023/02/10 04:41:22;;;;;;;65.93;39.90;;;1.60;99.90;;;;;;5037487;28;20955;-61
2023/02/10 04:43:50;;;;;;;56.80;36.80;;;1.50;99.90;;;;;;5037750;28;20557;-62
2023/02/10 04:46:18;;;;;;;65.47;37.27;;;1.40;99.90;;;;;;5037835;28;20746;-60
2023/02/10 04:48:46;;;;;;;61.20;37.90;;;1.50;1.00;;;;;;5037836;28;20833;-58
2023/02/10 04:51:14;;;;;;;63.17;38.33;;;1.30;1.00;;;;;;5037733;28;20489;-58
2023/02/10 04:53:43;;;;;;;58.60;38.27;;;1.30;1.00;;;;;;5036970;28;20896;-58
2023/02/10 04:56:10;;;;;;;59.00;38.40;;;1.40;1.00;;;;;;5037742;28;20474;-61
2023/02/10 04:58:38;;;;;;;70.10;38.60;;;1.30;1.00;;;;;;5037955;28;20459;-61
2023/02/10 05:01:05;;;;;;;60.30;37.70;;;1.30;1.00;;;;;;5052715;27;20458;-61
2023/02/10 05:03:34;;;;;;;71.47;39.13;;;1.20;1.00;;;;;;5040863;27;20822;-61
2023/02/10 05:06:07;;;;;;;56.83;37.03;;;1.20;79.40;;;;;;5043981;27;20503;-61
2023/02/10 05:08:38;;;;;;;69.03;38.17;;;1.20;99.90;;;;;;5045747;27;20890;-61
2023/02/10 05:11:05;;;;;;;67.70;38.83;;;1.10;99.90;;;;;;5080542;27;20460;-61
2023/02/10 05:13:32;;;;;;;62.10;37.40;;;1.00;99.90;;;;;;5037020;28;20581;-62
2023/02/10 05:16:02;;;;;;;68.10;40.40;;;1.00;1.00;;;;;;5037242;28;20495;-62
2023/02/10 05:18:30;;;;;;;73.20;42.17;;;1.00;99.90;;;;;;5038650;28;20467;-62
2023/02/10 05:20:59;;;;;;;64.47;38.40;;;1.00;1.00;;;;;;5037206;28;20549;-62
2023/02/10 05:23:27;;;;;;;67.67;41.37;;;1.00;99.90;;;;;;5018289;28;20549;-62
2023/02/10 05:25:54;;;;;;;77.57;40.37;;;1.00;1.00;;;;;;5023072;28;20527;-62
2023/02/10 05:28:21;;;;;;;66.00;39.77;;;0.90;1.00;;;;;;5036432;28;20816;-62
2023/02/10 05:30:49;;;;;;;63.57;40.43;;;0.90;99.90;;;;;;5035866;28;20545;-62
2023/02/10 05:33:16;;;;;;;68.03;39.60;;;0.80;98.00;;;;;;5036214;28;20585;-62
2023/02/10 05:35:44;;;;;;;61.30;38.10;;;0.70;99.90;;;;;;5036266;28;20472;-61
2023/02/10 05:38:13;;;;;;;71.03;39.47;;;0.80;99.90;;;;;;5036474;28;20470;-62
2023/02/10 05:40:40;;;;;;;67.43;38.03;;;0.80;1.00;;;;;;5034776;28;20958;-61
2023/02/10 05:43:08;;;;;;;65.10;38.80;;;0.80;99.90;;;;;;5035807;28;20532;-60
2023/02/10 05:45:35;;;;;;;65.47;39.63;;;0.70;99.90;;;;;;5035146;28;20463;-62
2023/02/10 05:48:03;;;;;;;66.10;38.90;;;0.60;39.00;;;;;;5036335;28;20459;-62
2023/02/10 05:50:30;;;;;;;63.27;38.57;;;0.60;90.60;;;;;;5036818;28;20457;-61
2023/02/10 05:53:00;;;;;;;73.53;40.67;;;0.60;99.90;;;;;;5035756;28;20490;-61
2023/02/10 05:55:29;;;;;;;72.43;39.87;;;0.70;1.00;;;;;;5035603;28;20462;-60
2023/02/10 05:57:56;;;;;;;65.77;39.93;;;0.70;1.00;;;;;;5036097;28;20475;-61
2023/02/10 06:00:24;;;;;;;68.40;40.27;;;0.60;1.00;;;;;;5034782;28;21313;-61
2023/02/10 06:02:51;;;;;;;73.60;40.80;;;0.60;1.00;;;;;;5033206;28;20459;-61
2023/02/10 06:05:18;;;;;;;70.50;39.37;;;0.60;1.00;;;;;;5033748;28;20562;-62
2023/02/10 06:07:45;;;;;;;61.87;37.47;;;0.60;69.40;;;;;;5034528;28;20465;-60
2023/02/10 06:10:12;;;;;;;67.73;39.80;;;0.60;94.30;;;;;;5035037;28;20554;-60
2023/02/10 06:12:41;;;;;;;67.10;38.97;;;0.60;64.80;;;;;;5034422;28;20541;-59
2023/02/10 06:15:10;;;;;;;64.53;38.57;;;0.60;97.90;;;;;;5035253;28;20990;-60
2023/02/10 06:17:38;;;;;;;62.87;38.93;;;0.50;26.90;;;;;;5034053;28;20913;-60
2023/02/10 06:20:06;;;;;;;67.87;37.57;;;0.40;1.00;;;;;;5033397;28;20505;-61
2023/02/10 06:22:33;;;;;;;62.50;37.90;;;0.50;1.00;;;;;;5033910;28;20520;-60
2023/02/10 06:25:01;;;;;;;59.10;36.40;;;0.50;1.00;;;;;;5035564;28;20538;-61
2023/02/10 06:27:29;;;;;;;57.33;36.70;;;0.50;1.00;;;;;;5031040;28;20481;-61
2023/02/10 06:29:57;;;;;;;65.93;38.90;;;0.40;99.90;;;;;;5074680;27;20566;-61
2023/02/10 06:32:25;;;;;;;65.27;37.30;;;0.40;99.90;;;;;;5032958;28;20465;-62
2023/02/10 06:34:52;;;;;;;63.83;39.67;;;0.50;1.00;;;;;;5031090;28;20497;-62
2023/02/10 06:37:19;;;;;;;77.53;41.57;;;0.50;1.00;;;;;;5029880;28;20463;-61
2023/02/10 06:39:46;;;;;;;62.73;39.20;;;0.60;1.00;;;;;;5018964;28;20478;-63
2023/02/10 06:42:14;;;;;;;65.23;40.30;;;0.60;18.10;;;;;;5029348;28;20561;-63
2023/02/10 06:44:42;;;;;;;64.40;39.27;;;0.60;1.00;;;;;;5029012;28;20775;-63
2023/02/10 06:47:11;;;;;;;63.47;39.37;;;0.60;42.70;;;;;;5029718;28;20759;-63
2023/02/10 06:49:38;;;;;;;59.60;37.60;;;0.60;1.00;;;;;;5031805;28;20789;-63
2023/02/10 06:52:06;;;;;;;72.10;41.00;;;0.60;1.00;;;;;;5022553;28;20467;-63
2023/02/10 06:54:33;;;;;;;63.27;37.50;;;0.50;99.90;;;;;;5030432;28;20913;-63
2023/02/10 06:57:00;;;;;;;62.43;39.13;;;0.40;99.90;;;;;;5031484;28;20579;-63
2023/02/10 06:59:28;;;;;;;70.37;40.43;;;0.40;99.90;;;;;;5032387;28;20470;-63
2023/02/10 07:02:00;;;;;;;59.43;39.27;;;0.40;1.00;;;;;;5031498;28;20900;-63
2023/02/10 07:04:29;;;;;;;62.17;39.37;;;0.50;99.90;;;;;;5032949;28;20463;-63
2023/02/10 07:06:56;;;;;;;65.67;38.90;;;0.40;99.90;;;;;;5032325;28;20745;-63
2023/02/10 07:09:24;;;;;;;63.77;39.23;;;0.30;99.90;;;;;;5034190;28;20470;-63
2023/02/10 07:11:51;;;;;;;64.73;39.37;;;0.30;99.90;;;;;;5034509;28;20490;-63
2023/02/10 07:14:19;;;;;;;63.80;40.00;;;0.30;1.00;;;;;;5034992;28;20581;-63
2023/02/10 07:16:47;;;;;;;62.27;39.60;;;0.30;1.00;;;;;;5035744;28;20546;-63
2023/02/10 07:19:14;;;;;;;69.30;39.77;;;0.30;1.00;;;;;;5035024;28;20493;-64
2023/02/10 07:21:43;;;;;;;78.37;54.10;;;0.30;1.00;;;;;;5035593;28;20477;-63
2023/02/10 07:24:11;;;;;;;62.53;39.87;;;0.40;75.00;;;;;;5035061;28;20846;-63
2023/02/10 07:26:40;;;;;;;61.93;40.97;;;0.40;99.90;;;;;;5034452;28;20575;-63
2023/02/10 07:29:07;;;;;;;68.33;41.23;;;0.50;99.90;;;;;;5034743;28;20548;-63
2023/02/10 07:31:35;;;;;;;70.87;44.60;;;0.50;99.90;;;;;;5035470;28;20554;-63
2023/02/10 07:34:02;;;;;;;71.57;43.70;;;0.60;99.90;;;;;;5034571;28;20497;-63
2023/02/10 07:36:30;;;;;;;65.53;41.57;;;0.70;99.90;;;;;;5035210;28;20472;-63
2023/02/10 07:38:58;;;;;;;60.43;39.07;;;0.70;99.90;;;;;;5034848;28;20519;-63
2023/02/10 07:41:25;;;;;;;65.03;39.40;;;0.80;99.90;;;;;;5034302;28;20537;-63
2023/02/10 07:43:53;;;;;;;58.17;38.00;;;0.80;99.90;;;;;;5035067;28;20494;-63
2023/02/10 07:46:20;;;;;;;71.17;40.93;;;0.80;99.90;;;;;;5034384;28;20560;-63
2023/02/10 07:48:48;;;;;;;64.93;37.70;;;0.80;99.90;;;;;;5034655;28;20487;-63
2023/02/10 07:51:15;;;;;;;60.17;38.07;;;0.80;99.90;;;;;;5034835;28;20438;-63
2023/02/10 07:53:42;;;;;;;64.17;39.20;;;0.80;99.90;;;;;;5034308;28;20803;-63
2023/02/10 07:56:11;;;;;;;66.27;41.53;;;0.90;99.90;;;;;;5034910;28;20473;-63
2023/02/10 07:58:38;;;;;;;65.33;38.47;;;0.90;99.90;;;;;;5034761;28;20753;-63
2023/02/10 08:01:09;;;;;;;62.53;39.67;;;1.00;99.90;;;;;;5034953;28;20438;-63
2023/02/10 08:03:37;;;;;;;60.77;39.30;;;0.90;99.90;;;;;;5030587;28;20469;-63
2023/02/10 08:06:05;;;;;;;66.07;38.47;;;1.00;99.90;;;;;;5059998;27;20586;-63
2023/02/10 08:08:32;;;;;;;61.70;37.63;;;1.10;99.90;;;;;;5032814;28;20465;-63
2023/02/10 08:11:00;;;;;;;75.53;39.60;;;1.10;99.90;;;;;;5040427;28;20497;-63
2023/02/10 08:13:29;;;;;;;71.37;41.10;;;1.20;99.90;;;;;;5047424;28;20724;-63
2023/02/10 08:15:57;;;;;;;68.40;41.00;;;1.20;99.90;;;;;;5033273;28;20512;-63
2023/02/10 08:18:24;;;;;;;65.37;41.30;;;1.30;99.90;;;;;;5031938;28;20888;-64
2023/02/10 08:20:52;;;;;;;58.47;39.07;;;1.50;99.90;;;;;;5028261;28;20570;-64
2023/02/10 08:23:19;;;;;;;62.67;39.60;;;1.50;99.90;;;;;;5031877;28;20561;-64
2023/02/10 08:25:46;;;;;;;59.43;38.80;;;1.60;99.90;;;;;;5032344;28;20467;-63
2023/02/10 08:28:14;;;;;;;64.10;39.83;;;1.60;99.90;;;;;;5031978;28;20470;-61
2023/02/10 08:30:43;;;;;;;64.87;40.23;;;1.70;99.90;;;;;;5013756;28;20841;-61
2023/02/10 08:33:10;;;;;;;65.87;40.67;;;1.80;99.90;;;;;;5013990;28;20474;-59
2023/02/10 08:35:39;;;;;;;64.40;38.33;;;2.00;99.90;;;;;;5029620;28;20491;-61
2023/02/10 08:38:10;;;;;;;68.37;40.97;;;2.10;99.90;;;;;;5023474;28;20479;-62
2023/02/10 08:40:40;;;;;;;63.77;36.37;;;2.20;99.90;;;;;;5030461;28;20470;-62
2023/02/10 08:43:07;;;;;;;64.63;38.30;;;2.30;99.90;;;;;;5030087;28;20466;-62
2023/02/10 08:45:34;;;;;;;60.10;36.27;;;2.40;99.90;;;;;;5030738;28;20707;-61
2023/02/10 08:48:03;;;;;;;64.30;39.10;;;2.40;99.90;;;;;;5030127;28;20459;-60
2023/02/10 08:50:30;;;;;;;64.73;35.77;;;2.50;99.90;;;;;;5028835;28;20502;-59
2023/02/10 08:52:58;;;;;;;63.20;37.90;;;2.60;94.20;;;;;;5030000;28;20458;-62
2023/02/10 08:55:25;;;;;;;59.20;37.57;;;2.70;1.00;;;;;;5030612;28;20495;-61
2023/02/10 08:57:52;;;;;;;58.17;33.67;;;2.80;1.00;;;;;;5031209;28;20459;-62
2023/02/10 09:00:20;;;;;;;60.00;38.47;;;2.80;12.50;;;;;;5029708;28;20978;-62
2023/02/10 09:02:49;;;;;;;58.70;38.30;;;2.90;1.00;;;;;;5030118;28;20753;-62
2023/02/10 09:05:19;;;;;;;50.57;35.03;;;3.00;99.90;;;;;;5031702;28;20839;-62
2023/02/10 09:07:47;;;;;;;51.73;33.90;;;3.10;1.00;;;;;;5031960;28;20460;-61
2023/02/10 09:10:15;;;;;;;54.87;37.03;;;3.20;1.00;;;;;;5032111;28;20459;-61
2023/02/10 09:12:42;;;;;;;54.03;35.80;;;3.20;99.90;;;;;;5032477;28;20823;-63
2023/02/10 09:15:11;;;;;;;55.43;35.43;;;3.30;1.00;;;;;;5031273;28;20577;-62
2023/02/10 09:17:38;;;;;;;56.30;34.97;;;3.30;99.90;;;;;;5031074;28;20561;-62
2023/02/10 09:20:06;;;;;;;65.33;38.03;;;3.40;99.90;;;;;;5033252;28;20543;-62
2023/02/10 09:22:35;;;;;;;66.93;37.20;;;3.40;1.00;;;;;;5035343;28;20470;-61
2023/02/10 09:25:02;;;;;;;58.53;36.03;;;3.30;1.00;;;;;;5022127;28;20546;-62
2023/02/10 09:27:29;;;;;;;63.43;36.63;;;3.40;1.00;;;;;;5035169;28;20483;-62
2023/02/10 09:29:56;;;;;;;66.40;39.10;;;3.30;99.90;;;;;;5028855;28;20673;-62
2023/02/10 09:32:24;;;;;;;58.23;35.10;;;3.30;99.90;;;;;;5019916;28;20480;-62
2023/02/10 09:34:51;;;;;;;63.13;37.70;;;3.30;99.90;;;;;;5020816;28;20863;-63
2023/02/10 09:37:18;;;;;;;59.70;38.20;;;3.40;99.90;;;;;;5034359;28;20899;-62
2023/02/10 09:39:47;;;;;;;63.27;40.80;;;3.40;99.90;;;;;;5035333;28;20470;-62
2023/02/10 09:42:27;;;;;;;66.53;38.37;;;3.50;99.90;;;;;;5033566;28;20497;-62
2023/02/10 09:45:04;;;;;;;70.87;38.60;;;3.40;99.90;;;;;;5013675;28;20575;-63
2023/02/10 09:47:39;;;;;;;61.93;37.17;;;3.40;99.90;;;;;;5025080;28;20481;-63
2023/02/10 09:50:47;;;;;;;57.63;36.60;;;3.40;99.90;;;;;;5014281;28;20562;-63
2023/02/10 09:53:18;;;;;;;62.57;37.20;;;3.50;99.90;;;;;;5010960;28;20482;-63
2023/02/10 09:55:50;;;;;;;61.30;35.57;;;3.50;78.30;;;;;;5013870;28;20649;-63
2023/02/10 09:58:25;;;;;;;62.03;35.40;;;3.50;60.90;;;;;;5013825;28;20763;-63
2023/02/10 10:00:57;;;;;;;62.83;36.60;;;3.60;47.80;;;;;;5013875;28;20474;-63
2023/02/10 10:03:28;;;;;;;58.63;35.90;;;3.60;27.20;;;;;;5036237;27;20463;-64
2023/02/10 10:06:03;;;;;;;61.57;32.83;;;3.70;11.20;;;;;;5016718;28;20471;-64
2023/02/10 10:08:37;;;;;;;60.97;36.60;;;3.60;1.00;;;;;;5024306;28;20494;-63
2023/02/10 10:11:20;;;;;;;64.17;36.63;;;3.60;1.00;;;;;;5034832;28;20550;-64
2023/02/10 10:13:47;;;;;;;62.30;36.60;;;3.70;1.00;;;;;;5035899;28;20471;-64
2023/02/10 10:16:23;;;;;;;58.37;34.83;;;3.70;1.00;;;;;;5034821;28;20538;-64
2023/02/10 10:19:02;;;;;;;53.40;34.23;;;3.80;1.00;;;;;;5035743;28;20474;-64
2023/02/10 10:21:36;;;;;;;54.63;33.27;;;3.90;1.00;;;;;;5035413;28;20751;-64
2023/02/10 10:24:16;;;;;;;59.33;35.23;;;3.90;1.00;;;;;;5022650;28;20575;-64
2023/02/10 10:27:02;;;;;;;50.90;31.80;;;4.10;1.00;;;;;;5014225;28;20467;-63
2023/02/10 10:29:40;;;;;;;51.33;31.23;;;4.10;1.00;;;;;;5021343;28;20571;-64
2023/02/10 10:32:16;;;;;;;55.37;33.07;;;4.10;1.00;;;;;;5034372;27;20930;-63
2023/02/10 10:34:50;;;;;;;57.63;34.57;;;4.20;1.00;;;;;;5035028;28;20762;-63
2023/02/10 10:37:20;;;;;;;60.70;33.30;;;4.30;1.00;;;;;;5034963;28;20470;-63
2023/02/10 10:39:50;;;;;;;61.90;33.60;;;4.50;1.00;;;;;;5035991;28;20876;-63
2023/02/10 10:42:24;;;;;;;50.53;32.10;;;4.70;1.00;;;;;;5036004;28;20463;-63
2023/02/10 10:44:53;;;;;;;49.83;27.80;;;4.80;1.00;;;;;;5035169;28;20466;-63
2023/02/10 10:47:27;;;;;;;53.33;31.67;;;4.80;1.00;;;;;;5035716;28;20470;-63
2023/02/10 10:49:55;;;;;;;55.67;32.83;;;4.80;1.00;;;;;;5033857;28;20844;-63
2023/02/10 10:52:31;;;;;;;45.30;28.80;;;4.70;1.00;;;;;;5027298;28;20463;-63
2023/02/10 10:54:59;;;;;;;51.67;28.97;;;4.70;1.00;;;;;;5035111;28;20763;-63
2023/02/10 10:57:30;;;;;;;52.03;32.97;;;4.80;1.00;;;;;;5034062;28;20460;-63
2023/02/10 11:00:04;;;;;;;44.83;25.90;;;4.90;1.00;;;;;;5033735;28;20506;-63
2023/02/10 11:02:31;;;;;;;50.50;31.30;;;4.90;1.00;;;;;;5035146;28;20849;-63
2023/02/10 11:05:02;;;;;;;47.03;29.07;;;5.00;1.00;;;;;;5033001;28;20520;-63
2023/02/10 11:07:33;;;;;;;51.73;31.53;;;5.00;1.00;;;;;;5027471;28;20559;-63
2023/02/10 11:10:01;;;;;;;44.17;29.20;;;5.00;1.00;;;;;;5033876;28;20565;-63
2023/02/10 11:12:33;;;;;;;50.57;31.70;;;5.10;1.00;;;;;;5033021;28;20470;-63
2023/02/10 11:15:03;;;;;;;51.60;30.63;;;5.10;99.90;;;;;;5033271;28;20935;-63
2023/02/10 11:17:36;;;;;;;51.97;28.90;;;5.00;99.90;;;;;;5034119;28;20463;-63
2023/02/10 11:20:21;;;;;;;47.97;31.63;;;5.00;99.90;;;;;;5033585;28;20474;-63
2023/02/10 11:22:58;;;;;;;46.50;30.93;;;5.30;1.00;;;;;;5031351;28;20749;-63
2023/02/10 11:25:29;;;;;;;44.83;27.90;;;5.50;99.90;;;;;;5016315;28;20471;-63
2023/02/10 11:28:00;;;;;;;47.20;30.67;;;5.90;99.90;;;;;;5029645;28;20896;-63
2023/02/10 11:30:29;;;;;;;48.27;31.53;;;6.10;99.90;;;;;;5033300;28;20471;-62
2023/02/10 11:32:57;;;;;;;46.40;29.77;;;6.10;99.90;;;;;;5034014;28;20471;-63
2023/02/10 11:35:25;;;;;;;49.40;29.80;;;6.00;99.90;;;;;;5026980;28;20835;-62
2023/02/10 11:37:55;;;;;;;50.83;31.87;;;6.10;99.90;;;;;;5024691;28;20471;-62
2023/02/10 11:40:25;;;;;;;43.73;31.20;;;6.30;99.90;;;;;;5032987;28;20559;-63
2023/02/10 11:42:56;;;;;;;48.30;31.37;;;6.20;99.90;;;;;;5034267;28;20779;-63
2023/02/10 11:45:26;;;;;;;46.87;32.37;;;5.90;99.90;;;;;;5024472;28;20948;-61
2023/02/10 11:48:14;;;;;;;42.20;29.10;;;5.80;99.90;;;;;;5027262;28;20467;-59
2023/02/10 11:50:41;;;;;;;46.07;31.20;;;6.10;99.90;;;;;;5033033;28;20467;-62
2023/02/10 11:53:22;;;;;;;40.40;30.57;;;6.60;99.90;;;;;;5034018;28;20800;-61
2023/02/10 11:55:57;;;;;;;48.30;32.63;;;6.50;99.90;;;;;;5034531;28;20498;-61
2023/02/10 11:58:58;;;;;;;46.50;30.47;;;6.40;99.90;;;;;;5032650;28;20474;-62
2023/02/10 12:01:36;;;;;;;47.50;30.97;;;6.50;99.90;;;;;;5045121;27;20458;-61
2023/02/10 12:04:10;;;;;;;48.87;30.90;;;6.40;99.90;;;;;;5032215;28;20462;-62
2023/02/10 12:06:40;;;;;;;49.20;31.93;;;6.50;99.90;;;;;;5031469;28;20463;-62
2023/02/10 12:09:16;;;;;;;47.77;28.87;;;6.50;99.90;;;;;;5031798;28;20459;-60
2023/02/10 12:11:52;;;;;;;43.33;28.73;;;6.30;99.90;;;;;;5029866;28;20467;-60
2023/02/10 12:14:31;;;;;;;41.90;28.43;;;6.40;99.90;;;;;;5031588;28;20554;-61
2023/02/10 12:17:12;;;;;;;40.07;28.10;;;6.70;99.90;;;;;;5030687;28;20459;-61
2023/02/10 12:19:48;;;;;;;41.90;28.03;;;7.10;99.90;;;;;;5032955;28;20554;-60
2023/02/10 12:22:26;;;;;;;43.47;29.63;;;7.80;99.90;;;;;;5029216;28;20473;-60
2023/02/10 12:25:14;;;;;;;39.50;26.07;;;8.30;99.90;;;;;;5030570;28;20455;-60
2023/02/10 12:28:00;;;;;;;37.53;25.03;;;8.50;99.90;;;;;;5028922;28;20776;-60
2023/02/10 12:30:42;;;;;;;40.30;25.30;;;8.50;99.90;;;;;;5030076;28;20772;-59
2023/02/10 12:33:32;;;;;;;37.60;24.10;;;8.60;99.90;;;;;;5029046;28;20793;-60
2023/02/10 12:36:10;;;;;;;31.53;23.00;;;8.70;99.90;;;;;;5030168;28;20484;-60
2023/02/10 12:38:58;;;;;;;37.00;23.40;;;8.90;99.90;;;;;;5030507;28;20569;-60
2023/02/10 12:41:35;;;;;;;28.83;21.30;;;9.20;99.90;;;;;;5030200;28;20483;-60
2023/02/10 12:44:22;;;;;;;29.80;20.67;;;9.10;99.90;;;;;;5030460;28;20566;-61
2023/02/10 12:47:03;;;;;;;35.03;21.00;;;9.10;99.90;;;;;;5017953;28;20482;-61
2023/02/10 12:49:43;;;;;;;36.23;21.90;;;8.80;99.90;;;;;;5031074;28;20459;-61
2023/02/10 12:52:15;;;;;;;28.70;18.47;;;8.50;99.90;;;;;;5031189;28;20466;-60
2023/02/10 12:54:49;;;;;;;29.17;18.27;;;8.20;99.90;;;;;;5031671;28;20548;-61
2023/02/10 12:57:24;;;;;;;28.40;20.77;;;8.20;99.90;;;;;;5036293;28;20755;-59
2023/02/10 12:59:56;;;;;;;34.67;19.83;;;8.40;99.90;;;;;;5036526;28;20467;-60
2023/02/10 13:02:29;;;;;;;29.07;19.97;;;8.50;99.90;;;;;;5034157;28;20930;-59